createdAt,value
2023-03-20T00:00:58.294Z,40.96
2023-03-20T00:02:01.084Z,39.89
2023-03-20T00:03:03.409Z,39.41
2023-03-20T00:04:06.122Z,41.81
2023-03-20T00:05:17.900Z,40.31
2023-03-20T00:06:25.643Z,40.07
2023-03-20T00:07:27.694Z,40.14
2023-03-20T00:08:29.819Z,38.49
2023-03-20T00:09:32.058Z,40.16
2023-03-20T00:11:53.579Z,40.03
2023-03-20T00:12:58.189Z,38.92
2023-03-20T00:14:03.371Z,38.61
2023-03-20T00:15:09.298Z,39.06
2023-03-20T00:16:11.955Z,39.50
2023-03-20T00:17:17.723Z,40.59
2023-03-20T00:18:22.572Z,39.80
2023-03-20T00:19:28.057Z,38.81
2023-03-20T00:20:31.703Z,37.36
2023-03-20T00:21:33.784Z,37.42
2023-03-20T00:22:35.789Z,39.04
2023-03-20T00:23:37.672Z,36.72
2023-03-20T00:24:40.681Z,37.32
2023-03-20T00:27:03.842Z,34.95
2023-03-20T00:28:29.333Z,34.37
2023-03-20T00:29:32.619Z,33.18
2023-03-20T00:30:34.784Z,34.28
2023-03-20T00:31:38.822Z,34.45
2023-03-20T00:32:41.497Z,33.92
2023-03-20T00:33:44.062Z,33.43
2023-03-20T00:34:45.948Z,33.63
2023-03-20T00:35:49.053Z,32.09
2023-03-20T00:36:52.731Z,33.96
2023-03-20T00:37:57.248Z,32.92
2023-03-20T00:38:59.196Z,34.12
2023-03-20T00:40:01.196Z,33.90
2023-03-20T00:41:07.034Z,32.39
2023-03-20T00:42:12.742Z,34.38
2023-03-20T00:43:14.804Z,34.38
2023-03-20T00:44:23.426Z,34.89
2023-03-20T00:45:28.647Z,33.18
2023-03-20T00:46:34.606Z,35.41
2023-03-20T00:47:38.528Z,33.23
2023-03-20T00:48:41.972Z,34.94
2023-03-20T00:49:45.929Z,35.30
2023-03-20T00:50:48.051Z,34.61
2023-03-20T00:51:49.956Z,34.49
2023-03-20T00:52:52.797Z,34.59
2023-03-20T00:53:54.692Z,32.65
2023-03-20T00:54:56.757Z,33.97
2023-03-20T00:56:00.966Z,33.52
2023-03-20T00:57:06.719Z,34.04
2023-03-20T00:58:10.911Z,37.13
2023-03-20T00:59:19.443Z,37.86
2023-03-20T01:00:35.571Z,35.58
2023-03-20T01:01:37.712Z,35.37
2023-03-20T01:02:39.699Z,33.61
2023-03-20T01:03:42.925Z,36.32
2023-03-20T01:04:45.534Z,35.06
2023-03-20T01:05:49.753Z,36.28
2023-03-20T01:06:52.635Z,33.98
2023-03-20T01:07:55.298Z,35.37
2023-03-20T01:08:57.188Z,34.09
2023-03-20T01:10:00.852Z,34.97
2023-03-20T01:11:03.276Z,34.38
2023-03-20T01:12:06.406Z,35.75
2023-03-20T01:13:28.581Z,34.89
2023-03-20T01:14:32.119Z,35.05
2023-03-20T01:15:35.516Z,35.69
2023-03-20T01:16:38.050Z,35.64
2023-03-20T01:17:40.192Z,35.71
2023-03-20T01:18:43.390Z,34.37
2023-03-20T01:19:45.802Z,36.26
2023-03-20T01:20:49.822Z,35.57
2023-03-20T01:21:52.825Z,35.66
2023-03-20T01:22:54.967Z,32.31
2023-03-20T01:23:58.377Z,34.29
2023-03-20T01:25:00.308Z,32.94
2023-03-20T01:26:04.213Z,33.51
2023-03-20T01:27:15.848Z,33.31
2023-03-20T01:28:21.280Z,32.73
2023-03-20T01:29:25.882Z,33.64
2023-03-20T01:30:30.839Z,42.39
2023-03-20T01:31:33.250Z,63.81
2023-03-20T01:32:35.634Z,86.12
2023-03-20T01:33:37.810Z,73.71
2023-03-20T01:34:39.700Z,64.99
2023-03-20T01:35:42.461Z,64.45
2023-03-20T01:36:52.148Z,62.99
2023-03-20T01:37:55.385Z,56.45
2023-03-20T01:38:58.371Z,48.89
2023-03-20T01:40:00.404Z,41.23
2023-03-20T01:41:15.487Z,37.09
2023-03-20T01:42:17.866Z,36.71
2023-03-20T01:43:21.952Z,35.74
2023-03-20T01:44:30.580Z,35.21
2023-03-20T01:45:35.901Z,34.80
2023-03-20T01:46:39.552Z,35.95
2023-03-20T01:47:42.242Z,37.42
2023-03-20T01:48:54.115Z,38.88
2023-03-20T01:50:25.853Z,39.14
2023-03-20T01:51:30.330Z,52.97
2023-03-20T01:52:32.466Z,46.92
2023-03-20T01:53:34.814Z,44.14
2023-03-20T01:54:39.150Z,46.63
2023-03-20T01:55:43.322Z,49.80
2023-03-20T01:56:49.423Z,46.76
2023-03-20T01:57:53.859Z,46.84
2023-03-20T01:58:59.552Z,44.96
2023-03-20T02:00:05.263Z,45.09
2023-03-20T02:01:09.766Z,38.39
2023-03-20T02:02:15.541Z,40.45
2023-03-20T02:03:18.638Z,36.56
2023-03-20T02:04:24.447Z,34.88
2023-03-20T02:05:27.279Z,31.39
2023-03-20T02:06:30.034Z,30.48
2023-03-20T02:07:34.426Z,29.91
2023-03-20T02:10:54.126Z,28.84
2023-03-20T02:11:58.360Z,29.56
2023-03-20T02:13:02.658Z,29.81
2023-03-20T02:14:06.109Z,30.11
2023-03-20T02:15:10.502Z,30.54
2023-03-20T02:16:15.427Z,28.64
2023-03-20T02:17:17.935Z,29.10
2023-03-20T02:18:19.977Z,28.09
2023-03-20T02:19:44.171Z,28.03
2023-03-20T02:21:08.304Z,29.32
2023-03-20T02:22:32.625Z,35.77
2023-03-20T02:24:12.103Z,39.95
2023-03-20T02:25:43.984Z,39.65
2023-03-20T02:28:14.739Z,30.16
2023-03-20T02:30:41.345Z,31.16
2023-03-20T02:31:56.183Z,31.60
2023-03-20T02:33:18.544Z,31.77
2023-03-20T02:34:57.961Z,32.53
2023-03-20T02:36:21.051Z,31.64
2023-03-20T02:37:33.631Z,32.23
2023-03-20T02:38:54.529Z,30.66
2023-03-20T02:40:33.571Z,33.11
2023-03-20T02:41:51.182Z,32.78
2023-03-20T02:43:06.031Z,32.50
2023-03-20T02:44:26.437Z,32.62
2023-03-20T02:45:38.126Z,31.85
2023-03-20T02:47:12.346Z,31.74
2023-03-20T02:48:41.345Z,32.70
2023-03-20T02:50:01.739Z,32.11
2023-03-20T02:51:10.432Z,32.21
2023-03-20T02:52:16.195Z,31.92
2023-03-20T02:53:25.031Z,32.71
2023-03-20T02:54:43.105Z,31.90
2023-03-20T02:56:08.430Z,33.07
2023-03-20T02:57:14.376Z,34.03
2023-03-20T03:00:48.804Z,31.53
2023-03-20T03:01:54.730Z,33.24
2023-03-20T03:03:06.297Z,35.25
2023-03-20T03:05:18.645Z,34.05
2023-03-20T03:06:31.848Z,35.01
2023-03-20T03:07:36.273Z,34.24
2023-03-20T03:08:41.954Z,35.42
2023-03-20T03:09:47.792Z,34.74
2023-03-20T03:10:56.764Z,33.52
2023-03-20T03:12:02.538Z,34.31
2023-03-20T03:13:07.738Z,33.29
2023-03-20T03:14:13.528Z,31.56
2023-03-20T03:15:30.837Z,31.67
2023-03-20T03:16:36.740Z,30.89
2023-03-20T03:17:43.536Z,31.99
2023-03-20T03:18:48.249Z,32.37
2023-03-20T03:19:53.438Z,33.03
2023-03-20T03:21:02.082Z,34.47
2023-03-20T03:22:05.712Z,32.73
2023-03-20T03:23:12.603Z,32.48
2023-03-20T03:24:40.233Z,34.37
2023-03-20T03:25:40.098Z,33.50
2023-03-20T03:26:43.016Z,33.34
2023-03-20T03:27:52.367Z,32.15
2023-03-20T03:29:00.765Z,32.85
2023-03-20T03:30:06.658Z,32.57
2023-03-20T03:31:15.366Z,34.03
2023-03-20T03:32:45.452Z,33.25
2023-03-20T03:33:51.185Z,32.38
2023-03-20T03:34:53.904Z,33.71
2023-03-20T03:35:59.580Z,32.24
2023-03-20T03:37:11.825Z,32.11
2023-03-20T03:38:23.561Z,31.49
2023-03-20T03:39:32.376Z,33.29
2023-03-20T03:41:04.135Z,32.17
2023-03-20T03:42:27.583Z,32.00
2023-03-20T03:43:51.630Z,32.11
2023-03-20T03:45:00.229Z,35.05
2023-03-20T03:46:06.230Z,36.02
2023-03-20T03:47:18.239Z,36.23
2023-03-20T03:48:23.985Z,33.47
2023-03-20T03:49:29.782Z,36.39
2023-03-20T03:50:38.277Z,39.00
2023-03-20T03:51:43.969Z,38.02
2023-03-20T03:52:48.812Z,39.97
2023-03-20T03:53:57.580Z,41.12
2023-03-20T03:55:12.080Z,38.83
2023-03-20T03:56:18.078Z,38.67
2023-03-20T03:57:23.910Z,41.23
2023-03-20T03:58:33.328Z,42.17
2023-03-20T03:59:41.915Z,41.88
2023-03-20T04:00:47.832Z,38.12
2023-03-20T04:01:51.952Z,38.51
2023-03-20T04:02:57.055Z,38.03
2023-03-20T04:04:04.872Z,34.86
2023-03-20T04:05:08.870Z,35.01
2023-03-20T04:06:11.870Z,35.88
2023-03-20T04:07:15.021Z,35.79
2023-03-20T04:08:17.194Z,35.24
2023-03-20T04:09:21.369Z,32.76
2023-03-20T04:10:24.317Z,33.75
2023-03-20T04:11:28.299Z,34.97
2023-03-20T04:12:36.394Z,33.94
2023-03-20T04:13:38.461Z,34.22
2023-03-20T04:14:40.362Z,32.76
2023-03-20T04:15:43.617Z,33.65
2023-03-20T04:16:47.535Z,30.26
2023-03-20T04:17:49.679Z,31.88
2023-03-20T04:18:53.030Z,29.57
2023-03-20T04:19:55.378Z,30.07
2023-03-20T04:20:57.875Z,29.49
2023-03-20T04:21:59.802Z,29.49
2023-03-20T04:23:01.811Z,29.69
2023-03-20T04:24:04.594Z,29.05
2023-03-20T04:25:10.537Z,31.09
2023-03-20T04:26:13.382Z,30.59
2023-03-20T04:27:15.364Z,29.35
2023-03-20T04:28:17.245Z,30.61
2023-03-20T04:29:19.252Z,29.83
2023-03-20T04:30:21.462Z,29.45
2023-03-20T04:31:23.589Z,30.67
2023-03-20T04:32:25.732Z,29.69
2023-03-20T04:33:28.524Z,31.31
2023-03-20T04:34:30.416Z,36.56
2023-03-20T04:35:32.349Z,32.55
2023-03-20T04:36:34.856Z,34.88
2023-03-20T04:37:37.014Z,31.49
2023-03-20T04:38:38.991Z,33.51
2023-03-20T04:39:40.877Z,31.55
2023-03-20T04:40:44.399Z,29.79
2023-03-20T04:41:49.466Z,30.96
2023-03-20T04:42:51.548Z,30.29
2023-03-20T04:43:55.465Z,30.17
2023-03-20T04:44:57.582Z,30.58
2023-03-20T04:46:00.658Z,32.07
2023-03-20T04:47:03.990Z,30.44
2023-03-20T04:48:06.990Z,31.86
2023-03-20T04:49:09.002Z,32.67
2023-03-20T04:50:11.454Z,33.00
2023-03-20T04:51:13.512Z,32.32
2023-03-20T04:52:15.695Z,32.69
2023-03-20T04:53:21.002Z,32.98
2023-03-20T04:54:23.504Z,32.42
2023-03-20T04:55:25.546Z,34.74
2023-03-20T04:56:27.988Z,35.50
2023-03-20T04:57:30.000Z,33.79
2023-03-20T04:58:31.887Z,34.75
2023-03-20T04:59:33.910Z,34.89
2023-03-20T05:00:38.325Z,34.20
2023-03-20T05:01:40.252Z,35.82
2023-03-20T05:02:43.756Z,38.43
2023-03-20T05:03:45.979Z,37.74
2023-03-20T05:04:48.008Z,39.48
2023-03-20T05:05:50.233Z,39.77
2023-03-20T05:06:52.681Z,43.72
2023-03-20T05:07:58.097Z,41.93
2023-03-20T05:09:00.493Z,40.83
2023-03-20T05:10:05.942Z,40.34
2023-03-20T05:11:08.221Z,36.86
2023-03-20T05:12:10.575Z,38.80
2023-03-20T05:13:12.853Z,39.45
2023-03-20T05:14:14.887Z,37.07
2023-03-20T05:15:17.693Z,38.21
2023-03-20T05:16:20.236Z,37.23
2023-03-20T05:17:25.481Z,36.05
2023-03-20T05:18:27.864Z,36.87
2023-03-20T05:19:31.131Z,34.29
2023-03-20T05:20:35.488Z,35.18
2023-03-20T05:21:37.608Z,33.88
2023-03-20T05:22:39.560Z,32.45
2023-03-20T05:23:41.556Z,35.09
2023-03-20T05:24:43.671Z,35.73
2023-03-20T05:25:45.678Z,34.38
2023-03-20T05:26:48.110Z,34.56
2023-03-20T05:27:50.224Z,37.61
2023-03-20T05:28:52.347Z,46.00
2023-03-20T05:29:54.495Z,48.39
2023-03-20T05:30:56.895Z,57.64
2023-03-20T05:32:00.224Z,46.85
2023-03-20T05:33:02.315Z,41.72
2023-03-20T05:34:05.053Z,39.61
2023-03-20T05:35:08.034Z,37.57
2023-03-20T05:36:10.177Z,37.08
2023-03-20T05:37:12.119Z,36.96
2023-03-20T05:38:14.149Z,37.95
2023-03-20T05:39:16.270Z,37.04
2023-03-20T05:40:18.804Z,38.53
2023-03-20T05:41:20.799Z,36.89
2023-03-20T05:42:22.680Z,36.19
2023-03-20T05:43:25.095Z,34.57
2023-03-20T05:44:27.249Z,36.19
2023-03-20T05:45:29.976Z,33.75
2023-03-20T05:46:31.999Z,35.74
2023-03-20T05:47:34.194Z,33.61
2023-03-20T05:48:36.082Z,36.62
2023-03-20T05:49:38.083Z,35.59
2023-03-20T05:50:40.766Z,35.87
2023-03-20T05:51:42.658Z,36.56
2023-03-20T05:52:48.623Z,34.76
2023-03-20T05:53:50.684Z,36.85
2023-03-20T05:54:52.744Z,37.84
2023-03-20T05:55:54.677Z,37.62
2023-03-20T05:56:59.007Z,39.03
2023-03-20T05:58:02.751Z,38.39
2023-03-20T05:59:06.925Z,39.21
2023-03-20T06:00:11.041Z,51.58
2023-03-20T06:01:13.080Z,54.39
2023-03-20T06:02:15.777Z,57.63
2023-03-20T06:03:18.270Z,50.27
2023-03-20T06:04:20.307Z,44.49
2023-03-20T06:05:22.203Z,38.27
2023-03-20T06:06:24.614Z,37.48
2023-03-20T06:07:26.546Z,36.27
2023-03-20T06:08:28.517Z,34.79
2023-03-20T06:09:30.391Z,35.91
2023-03-20T06:10:32.718Z,35.05
2023-03-20T06:11:37.371Z,36.35
2023-03-20T06:12:38.665Z,36.38
2023-03-20T06:13:44.467Z,36.70
2023-03-20T06:14:46.386Z,36.82
2023-03-20T06:15:48.415Z,36.07
2023-03-20T06:16:52.515Z,34.83
2023-03-20T06:17:55.638Z,35.79
2023-03-20T06:18:57.554Z,35.65
2023-03-20T06:19:59.559Z,36.23
2023-03-20T06:21:01.572Z,36.20
2023-03-20T06:22:04.133Z,35.27
2023-03-20T06:23:06.838Z,36.06
2023-03-20T06:24:08.795Z,35.13
2023-03-20T06:25:10.693Z,34.25
2023-03-20T06:26:12.805Z,32.84
2023-03-20T06:27:15.018Z,35.55
2023-03-20T06:28:17.072Z,33.48
2023-03-20T06:29:19.014Z,33.36
2023-03-20T06:30:21.068Z,34.51
2023-03-20T06:31:25.624Z,34.55
2023-03-20T06:32:27.606Z,35.06
2023-03-20T06:33:29.494Z,35.68
2023-03-20T06:34:31.566Z,36.82
2023-03-20T06:35:33.790Z,35.08
2023-03-20T06:36:36.893Z,34.33
2023-03-20T06:37:39.328Z,34.80
2023-03-20T06:38:41.351Z,34.95
2023-03-20T06:39:43.686Z,36.19
2023-03-20T06:40:46.070Z,35.80
2023-03-20T06:41:47.965Z,34.89
2023-03-20T06:42:50.006Z,34.55
2023-03-20T06:43:52.270Z,36.18
2023-03-20T06:44:54.454Z,34.72
2023-03-20T06:45:56.478Z,34.92
2023-03-20T06:46:58.787Z,35.01
2023-03-20T06:48:00.859Z,35.70
2023-03-20T06:49:04.305Z,34.37
2023-03-20T06:50:09.147Z,34.11
2023-03-20T06:51:11.109Z,32.73
2023-03-20T06:52:18.751Z,33.26
2023-03-20T06:53:21.688Z,32.70
2023-03-20T06:54:23.599Z,32.59
2023-03-20T06:55:25.623Z,33.96
2023-03-20T06:56:27.641Z,33.37
2023-03-20T06:57:30.988Z,32.09
2023-03-20T06:58:35.037Z,31.99
2023-03-20T06:59:37.128Z,32.42
2023-03-20T07:00:39.246Z,30.85
2023-03-20T07:01:42.036Z,30.19
2023-03-20T07:02:44.124Z,31.65
2023-03-20T07:03:47.062Z,30.52
2023-03-20T07:04:50.174Z,30.15
2023-03-20T07:05:52.211Z,29.72
2023-03-20T07:06:54.981Z,28.96
2023-03-20T07:07:58.294Z,28.95
2023-03-20T07:09:01.075Z,28.59
2023-03-20T07:10:04.626Z,26.15
2023-03-20T07:11:07.388Z,27.97
2023-03-20T07:12:13.128Z,27.72
2023-03-20T07:13:15.085Z,28.34
2023-03-20T07:14:37.791Z,26.96
2023-03-20T07:15:43.880Z,26.50
2023-03-20T07:16:43.888Z,27.31
2023-03-20T07:17:46.635Z,28.05
2023-03-20T07:18:48.784Z,28.02
2023-03-20T07:19:50.803Z,27.95
2023-03-20T07:20:55.493Z,28.65
2023-03-20T07:21:59.992Z,27.91
2023-03-20T07:23:02.166Z,26.64
2023-03-20T07:24:04.348Z,28.08
2023-03-20T07:25:08.062Z,27.51
2023-03-20T07:26:11.949Z,27.17
2023-03-20T07:27:14.676Z,24.87
2023-03-20T07:28:16.850Z,26.16
2023-03-20T07:29:18.729Z,24.32
2023-03-20T07:30:20.849Z,24.83
2023-03-20T07:31:25.748Z,23.77
2023-03-20T07:32:27.734Z,24.38
2023-03-20T07:33:29.808Z,25.42
2023-03-20T07:34:31.704Z,24.28
2023-03-20T07:35:33.974Z,25.43
2023-03-20T07:36:36.255Z,24.23
2023-03-20T07:37:39.495Z,21.83
2023-03-20T07:38:41.627Z,23.08
2023-03-20T07:39:43.715Z,22.83
2023-03-20T07:40:46.040Z,21.63
2023-03-20T07:41:48.243Z,19.58
2023-03-20T07:42:50.233Z,20.17
2023-03-20T07:43:52.597Z,21.64
2023-03-20T07:44:54.554Z,22.47
2023-03-20T07:45:56.679Z,19.55
2023-03-20T07:46:58.949Z,21.39
2023-03-20T07:48:02.064Z,22.49
2023-03-20T07:49:04.111Z,21.10
2023-03-20T07:50:08.294Z,21.77
2023-03-20T07:51:10.982Z,19.26
2023-03-20T07:52:13.426Z,18.18
2023-03-20T07:53:15.478Z,17.02
2023-03-20T07:54:17.905Z,18.37
2023-03-20T07:55:20.084Z,18.17
2023-03-20T07:56:22.238Z,17.98
2023-03-20T07:57:24.131Z,18.28
2023-03-20T07:58:26.135Z,20.16
2023-03-20T07:59:28.011Z,18.75
2023-03-20T08:00:30.332Z,15.99
2023-03-20T08:01:33.065Z,16.01
2023-03-20T08:02:35.096Z,14.49
2023-03-20T08:03:37.219Z,14.35
2023-03-20T08:04:40.288Z,16.60
2023-03-20T08:05:45.834Z,17.50
2023-03-20T08:06:47.342Z,16.15
2023-03-20T08:07:49.549Z,12.99
2023-03-20T08:08:52.041Z,14.98
2023-03-20T08:09:54.598Z,18.19
2023-03-20T08:10:56.806Z,16.51
2023-03-20T08:11:58.715Z,14.71
2023-03-20T08:13:00.822Z,16.57
2023-03-20T08:14:02.800Z,17.53
2023-03-20T08:15:06.503Z,17.53
2023-03-20T08:16:10.159Z,15.31
2023-03-20T08:17:16.070Z,14.11
2023-03-20T08:18:16.902Z,12.89
2023-03-20T08:19:19.018Z,10.68
2023-03-20T08:20:21.002Z,10.03
2023-03-20T08:21:23.175Z,11.95
2023-03-20T08:22:26.166Z,11.26
2023-03-20T08:23:28.371Z,10.31
2023-03-20T08:24:31.858Z,9.20
2023-03-20T08:25:35.242Z,10.24
2023-03-20T08:26:37.672Z,9.48
2023-03-20T08:27:41.192Z,9.29
2023-03-20T08:28:48.389Z,9.74
2023-03-20T08:29:47.271Z,9.96
2023-03-20T08:30:49.687Z,11.10
2023-03-20T08:31:52.062Z,10.47
2023-03-20T08:32:54.143Z,11.11
2023-03-20T08:33:56.459Z,10.60
2023-03-20T08:34:58.424Z,11.09
2023-03-20T08:36:00.487Z,9.19
2023-03-20T08:37:04.264Z,9.21
2023-03-20T08:38:06.340Z,8.83
2023-03-20T08:39:08.715Z,9.05
2023-03-20T08:40:12.332Z,8.01
2023-03-20T08:41:14.946Z,8.56
2023-03-20T08:42:17.915Z,9.23
2023-03-20T08:43:20.771Z,9.14
2023-03-20T08:44:23.206Z,9.86
2023-03-20T08:45:25.466Z,9.17
2023-03-20T08:46:28.253Z,9.50
2023-03-20T08:47:30.965Z,9.90
2023-03-20T08:48:34.990Z,9.19
2023-03-20T08:49:37.263Z,10.28
2023-03-20T08:50:39.475Z,10.09
2023-03-20T08:51:41.474Z,8.34
2023-03-20T08:52:44.593Z,8.06
2023-03-20T08:53:46.923Z,6.83
2023-03-20T08:54:48.929Z,7.70
2023-03-20T08:55:51.913Z,8.33
2023-03-20T08:56:54.477Z,9.33
2023-03-20T08:57:56.642Z,9.45
2023-03-20T08:58:59.102Z,8.73
2023-03-20T09:00:01.231Z,9.40
2023-03-20T09:01:05.595Z,9.17
2023-03-20T09:02:10.307Z,9.56
2023-03-20T09:03:18.003Z,10.23
2023-03-20T09:04:20.171Z,9.58
2023-03-20T09:05:22.157Z,9.60
2023-03-20T09:06:24.275Z,9.62
2023-03-20T09:07:26.398Z,9.93
2023-03-20T09:08:28.449Z,9.15
2023-03-20T09:09:30.636Z,10.09
2023-03-20T09:10:32.993Z,10.35
2023-03-20T09:11:37.652Z,9.69
2023-03-20T09:12:39.731Z,9.85
2023-03-20T09:13:42.083Z,8.21
2023-03-20T09:14:44.844Z,9.57
2023-03-20T09:15:48.088Z,9.21
2023-03-20T09:16:51.661Z,10.53
2023-03-20T09:17:53.928Z,10.91
2023-03-20T09:18:55.975Z,10.19
2023-03-20T09:20:01.906Z,9.85
2023-03-20T09:21:04.758Z,11.29
2023-03-20T09:22:06.864Z,11.02
2023-03-20T09:23:09.214Z,11.32
2023-03-20T09:24:11.897Z,11.87
2023-03-20T09:25:14.588Z,11.29
2023-03-20T09:26:16.984Z,11.39
2023-03-20T09:27:19.854Z,11.17
2023-03-20T09:28:21.940Z,10.72
2023-03-20T09:29:24.367Z,10.87
2023-03-20T09:30:26.695Z,10.19
2023-03-20T09:31:28.903Z,11.07
2023-03-20T09:32:31.001Z,11.75
2023-03-20T09:33:33.283Z,11.61
2023-03-20T09:34:35.233Z,10.79
2023-03-20T09:35:38.802Z,12.01
2023-03-20T09:36:41.122Z,10.89
2023-03-20T09:37:43.474Z,11.85
2023-03-20T09:38:45.359Z,11.19
2023-03-20T09:39:48.239Z,10.71
2023-03-20T09:41:02.127Z,10.17
2023-03-20T09:43:26.967Z,10.71
2023-03-20T09:44:36.193Z,10.52
2023-03-20T09:45:46.199Z,11.59
2023-03-20T09:47:18.915Z,10.26
2023-03-20T09:48:14.848Z,9.63
2023-03-20T09:49:23.639Z,10.63
2023-03-20T09:50:36.057Z,11.18
2023-03-20T09:51:48.510Z,9.57
2023-03-20T09:53:12.196Z,10.16
2023-03-20T09:54:27.093Z,9.55
2023-03-20T09:55:40.965Z,8.67
2023-03-20T09:56:43.394Z,8.75
2023-03-20T09:57:52.724Z,9.57
2023-03-20T09:59:00.996Z,8.54
2023-03-20T10:00:07.431Z,8.92
2023-03-20T10:01:13.053Z,8.83
2023-03-20T10:02:19.236Z,9.93
2023-03-20T10:03:42.212Z,9.32
2023-03-20T10:04:49.317Z,9.82
2023-03-20T10:06:00.937Z,9.04
2023-03-20T10:07:05.218Z,9.36
2023-03-20T10:08:15.027Z,9.68
2023-03-20T10:09:28.571Z,9.12
2023-03-20T10:10:41.144Z,8.33
2023-03-20T10:12:05.919Z,7.56
2023-03-20T10:13:32.363Z,7.44
2023-03-20T10:14:54.791Z,7.63
2023-03-20T10:16:15.111Z,8.36
2023-03-20T10:17:29.848Z,8.48
2023-03-20T10:18:35.548Z,7.54
2023-03-20T10:19:57.403Z,6.84
2023-03-20T10:21:12.201Z,6.85
2023-03-20T10:22:21.189Z,6.42
2023-03-20T10:23:27.172Z,7.17
2023-03-20T10:24:51.240Z,6.89
2023-03-20T10:25:59.883Z,7.01
2023-03-20T10:27:08.303Z,6.55
2023-03-20T10:28:26.008Z,6.89
2023-03-20T10:29:41.629Z,7.06
2023-03-20T10:31:08.778Z,7.97
2023-03-20T10:33:39.409Z,7.24
2023-03-20T10:35:08.864Z,7.66
2023-03-20T10:36:45.411Z,7.11
2023-03-20T10:39:05.076Z,7.36
2023-03-20T10:40:29.230Z,7.80
2023-03-20T10:41:35.014Z,8.56
2023-03-20T10:42:40.739Z,9.26
2023-03-20T10:43:45.177Z,8.99
2023-03-20T10:44:50.985Z,8.91
2023-03-20T10:46:03.041Z,8.52
2023-03-20T10:47:08.849Z,8.49
2023-03-20T10:48:26.992Z,8.61
2023-03-20T10:49:38.566Z,7.80
2023-03-20T10:50:47.547Z,8.30
2023-03-20T10:51:55.620Z,8.42
2023-03-20T10:53:00.137Z,8.62
2023-03-20T10:54:05.916Z,8.61
2023-03-20T10:56:41.286Z,8.83
2023-03-20T10:57:52.863Z,8.43
2023-03-20T10:59:59.254Z,9.34
2023-03-20T11:01:01.484Z,8.93
2023-03-20T11:02:12.234Z,9.97
2023-03-20T11:05:32.743Z,9.25
2023-03-20T11:06:38.869Z,10.29
2023-03-20T11:07:42.167Z,10.55
2023-03-20T11:08:48.165Z,10.34
2023-03-20T11:10:09.054Z,9.59
2023-03-20T11:11:11.196Z,11.06
2023-03-20T11:12:19.412Z,10.53
2023-03-20T11:13:36.292Z,10.26
2023-03-20T11:14:39.175Z,10.60
2023-03-20T11:15:41.297Z,10.91
2023-03-20T11:16:50.303Z,11.24
2023-03-20T11:18:05.453Z,11.18
2023-03-20T11:19:11.057Z,10.43
2023-03-20T11:20:14.493Z,10.51
2023-03-20T11:21:20.278Z,10.71
2023-03-20T11:22:25.366Z,11.32
2023-03-20T11:23:35.649Z,10.48
2023-03-20T11:24:41.128Z,11.08
2023-03-20T11:25:57.996Z,11.97
2023-03-20T11:27:15.450Z,10.13
2023-03-20T11:28:27.488Z,11.23
2023-03-20T11:29:31.898Z,11.11
2023-03-20T11:30:37.980Z,10.66
2023-03-20T11:31:41.578Z,10.91
2023-03-20T11:32:49.468Z,9.65
2023-03-20T11:34:16.634Z,10.47
2023-03-20T11:35:29.030Z,10.01
2023-03-20T11:36:33.112Z,10.08
2023-03-20T11:37:35.962Z,9.20
2023-03-20T11:38:45.511Z,9.28
2023-03-20T11:40:03.532Z,9.80
2023-03-20T11:41:09.265Z,8.78
2023-03-20T11:42:26.290Z,8.78
2023-03-20T11:43:28.444Z,8.91
2023-03-20T11:44:35.418Z,8.79
2023-03-20T11:45:44.316Z,8.71
2023-03-20T11:46:59.575Z,7.90
2023-03-20T11:48:04.044Z,7.94
2023-03-20T11:49:19.040Z,7.57
2023-03-20T11:50:33.675Z,7.47
2023-03-20T11:51:36.822Z,8.43
2023-03-20T11:52:39.992Z,8.60
2023-03-20T11:53:48.579Z,8.62
2023-03-20T11:54:54.207Z,9.30
2023-03-20T11:56:06.165Z,9.45
2023-03-20T11:57:11.955Z,8.37
2023-03-20T11:58:16.686Z,8.17
2023-03-20T11:59:22.886Z,8.54
2023-03-20T12:00:31.813Z,8.81
2023-03-20T12:01:43.048Z,8.78
2023-03-20T12:02:45.305Z,8.57
2023-03-20T12:04:11.069Z,12.95
2023-03-20T12:05:35.340Z,8.40
2023-03-20T12:06:44.316Z,7.94
2023-03-20T12:07:51.257Z,8.36
2023-03-20T12:09:02.769Z,8.47
2023-03-20T12:10:07.865Z,7.98
2023-03-20T12:11:22.456Z,7.43
2023-03-20T12:12:43.478Z,8.44
2023-03-20T12:13:48.878Z,8.74
2023-03-20T12:15:06.916Z,8.54
2023-03-20T12:17:49.470Z,8.43
2023-03-20T12:19:07.010Z,7.10
2023-03-20T12:20:42.291Z,8.16
2023-03-20T12:21:48.531Z,8.22
2023-03-20T12:23:11.936Z,8.54
2023-03-20T12:25:50.732Z,8.41
2023-03-20T12:27:02.416Z,9.16
2023-03-20T12:28:23.556Z,9.09
2023-03-20T12:29:31.860Z,8.51
2023-03-20T12:31:10.656Z,8.36
2023-03-20T12:32:16.498Z,8.22
2023-03-20T12:33:28.144Z,7.87
2023-03-20T12:34:36.771Z,8.83
2023-03-20T12:35:42.524Z,8.26
2023-03-20T12:36:48.012Z,8.02
2023-03-20T12:37:51.877Z,7.42
2023-03-20T12:38:54.837Z,9.00
2023-03-20T12:40:00.528Z,7.49
2023-03-20T12:41:24.469Z,7.67
2023-03-20T12:42:35.750Z,8.76
2023-03-20T12:43:44.481Z,7.87
2023-03-20T12:44:56.103Z,7.87
2023-03-20T12:46:08.229Z,7.43
2023-03-20T12:47:19.772Z,7.72
2023-03-20T12:48:40.949Z,7.98
2023-03-20T12:50:08.290Z,7.07
2023-03-20T12:51:39.760Z,7.57
2023-03-20T12:52:57.570Z,7.70
2023-03-20T12:58:22.156Z,8.01
2023-03-20T13:00:01.748Z,7.41
2023-03-20T13:01:10.470Z,7.95
2023-03-20T13:02:22.628Z,8.05
2023-03-20T13:03:43.631Z,8.33
2023-03-20T13:04:55.415Z,7.61
2023-03-20T13:06:16.383Z,7.58
2023-03-20T13:08:38.534Z,8.14
2023-03-20T13:10:01.291Z,9.93
2023-03-20T13:11:17.180Z,8.66
2023-03-20T13:12:41.420Z,7.98
2023-03-20T13:13:48.192Z,7.71
2023-03-20T13:15:14.632Z,7.54
2023-03-20T13:17:39.442Z,7.68
2023-03-20T13:18:54.311Z,7.72
2023-03-20T13:20:00.124Z,7.99
2023-03-20T13:21:06.042Z,8.40
2023-03-20T13:22:20.946Z,8.94
2023-03-20T13:23:26.716Z,7.53
2023-03-20T13:24:53.003Z,7.84
2023-03-20T13:26:01.998Z,7.23
2023-03-20T13:27:34.412Z,8.06
2023-03-20T13:28:49.807Z,7.80
2023-03-20T13:30:26.239Z,7.82
2023-03-20T13:31:40.898Z,7.33
2023-03-20T13:33:20.608Z,7.05
2023-03-20T13:34:44.661Z,7.54
2023-03-20T13:36:11.702Z,8.00
2023-03-20T13:37:38.655Z,7.54
2023-03-20T13:38:44.447Z,6.96
2023-03-20T13:40:07.043Z,7.87
2023-03-20T13:41:10.271Z,7.40
2023-03-20T13:42:16.172Z,7.28
2023-03-20T13:43:26.220Z,7.42
2023-03-20T13:44:31.603Z,8.12
2023-03-20T13:45:42.049Z,6.68
2023-03-20T13:48:01.488Z,6.91
2023-03-20T13:49:27.282Z,7.31
2023-03-20T13:50:33.529Z,7.05
2023-03-20T13:51:42.448Z,7.59
2023-03-20T13:52:51.788Z,7.17
2023-03-20T13:54:14.322Z,7.74
2023-03-20T13:55:25.544Z,7.33
2023-03-20T13:57:41.313Z,7.43
2023-03-20T13:58:47.201Z,7.45
2023-03-20T14:00:17.461Z,7.55
2023-03-20T14:01:26.765Z,7.08
2023-03-20T14:02:48.698Z,7.54
2023-03-20T14:03:52.697Z,7.63
2023-03-20T14:05:01.706Z,6.31
2023-03-20T14:06:32.428Z,7.26
2023-03-20T14:07:37.525Z,6.64
2023-03-20T14:08:43.286Z,7.03
2023-03-20T14:09:45.662Z,6.37
2023-03-20T14:10:50.080Z,7.01
2023-03-20T14:11:55.438Z,6.25
2023-03-20T14:14:16.784Z,7.63
2023-03-20T14:15:21.121Z,6.38
2023-03-20T14:16:25.618Z,7.61
2023-03-20T14:17:30.122Z,7.12
2023-03-20T14:18:32.453Z,6.95
2023-03-20T14:19:37.912Z,7.67
2023-03-20T14:20:42.909Z,6.65
2023-03-20T14:21:48.114Z,6.79
2023-03-20T14:22:50.779Z,6.92
2023-03-20T14:24:05.419Z,6.27
2023-03-20T14:25:11.449Z,6.27
2023-03-20T14:26:20.344Z,6.50
2023-03-20T14:27:42.918Z,6.59
2023-03-20T14:28:30.937Z,6.72
2023-03-20T14:29:38.262Z,6.73
2023-03-20T14:30:43.854Z,6.62
2023-03-20T14:31:50.091Z,6.22
2023-03-20T14:32:55.879Z,6.87
2023-03-20T14:34:01.607Z,7.38
2023-03-20T14:35:22.603Z,8.19
2023-03-20T14:36:29.637Z,7.12
2023-03-20T14:38:09.325Z,6.76
2023-03-20T14:39:22.160Z,6.48
2023-03-20T14:40:28.094Z,7.57
2023-03-20T14:41:36.839Z,7.49
2023-03-20T14:42:51.338Z,6.64
2023-03-20T14:44:27.823Z,7.21
2023-03-20T14:45:39.854Z,7.07
2023-03-20T14:46:55.221Z,7.44
2023-03-20T14:48:23.587Z,7.09
2023-03-20T14:49:44.382Z,8.07
2023-03-20T14:51:54.350Z,10.84
2023-03-20T14:53:14.751Z,9.93
2023-03-20T14:55:56.448Z,9.37
2023-03-20T14:57:11.431Z,9.47
2023-03-20T14:58:33.993Z,8.94
2023-03-20T14:59:36.646Z,8.96
2023-03-20T15:00:46.065Z,8.89
2023-03-20T15:01:52.013Z,9.47
2023-03-20T15:03:09.593Z,9.96
2023-03-20T15:04:24.948Z,9.75
2023-03-20T15:05:36.058Z,9.66
2023-03-20T15:06:44.859Z,10.13
2023-03-20T15:07:47.055Z,10.52
2023-03-20T15:10:05.241Z,10.43
2023-03-20T15:11:11.903Z,10.05